sensor_id;sensor_type;location;lat;lon;timestamp;pressure;altitude;pressure_sealevel;temperature;humidity
21821;BME280;11073;48.586;12.066;2023-04-25T00:01:07;95807.03;;;9.36;58.33
21821;BME280;11073;48.586;12.066;2023-04-25T00:03:37;95802.75;;;9.40;58.46
21821;BME280;11073;48.586;12.066;2023-04-25T00:06:08;95794.34;;;9.36;58.66
21821;BME280;11073;48.586;12.066;2023-04-25T00:08:37;95797.34;;;9.40;58.77
21821;BME280;11073;48.586;12.066;2023-04-25T00:11:06;95797.59;;;9.38;58.84
21821;BME280;11073;48.586;12.066;2023-04-25T00:13:35;95790.97;;;9.29;58.85
21821;BME280;11073;48.586;12.066;2023-04-25T00:16:04;95804.47;;;9.29;59.18
21821;BME280;11073;48.586;12.066;2023-04-25T00:18:34;95799.41;;;9.33;59.20
21821;BME280;11073;48.586;12.066;2023-04-25T00:21:03;95811.78;;;9.29;59.28
21821;BME280;11073;48.586;12.066;2023-04-25T00:23:35;95806.63;;;9.27;59.39
21821;BME280;11073;48.586;12.066;2023-04-25T00:26:04;95811.13;;;9.22;59.28
21821;BME280;11073;48.586;12.066;2023-04-25T00:28:33;95802.59;;;9.13;59.51
21821;BME280;11073;48.586;12.066;2023-04-25T00:31:02;95812.94;;;8.88;59.75
21821;BME280;11073;48.586;12.066;2023-04-25T00:33:32;95805.91;;;8.87;60.03
21821;BME280;11073;48.586;12.066;2023-04-25T00:36:02;95807.81;;;8.86;60.08
21821;BME280;11073;48.586;12.066;2023-04-25T00:38:31;95795.44;;;8.90;60.29
21821;BME280;11073;48.586;12.066;2023-04-25T00:41:01;95799.19;;;8.89;60.47
21821;BME280;11073;48.586;12.066;2023-04-25T00:43:30;95802.97;;;8.88;60.64
21821;BME280;11073;48.586;12.066;2023-04-25T00:46:02;95800.94;;;8.95;60.63
21821;BME280;11073;48.586;12.066;2023-04-25T00:48:31;95790.13;;;8.95;60.65
21821;BME280;11073;48.586;12.066;2023-04-25T00:51:00;95789.88;;;8.97;60.62
21821;BME280;11073;48.586;12.066;2023-04-25T00:53:30;95783.41;;;8.98;60.70
21821;BME280;11073;48.586;12.066;2023-04-25T00:56:02;95790.22;;;9.00;60.78
21821;BME280;11073;48.586;12.066;2023-04-25T00:58:31;95788.66;;;9.04;60.66
21821;BME280;11073;48.586;12.066;2023-04-25T01:01:00;95785.16;;;9.04;60.64
21821;BME280;11073;48.586;12.066;2023-04-25T01:03:31;95794.41;;;9.08;60.64
21821;BME280;11073;48.586;12.066;2023-04-25T01:06:04;95782.28;;;9.10;60.66
21821;BME280;11073;48.586;12.066;2023-04-25T01:08:33;95784.75;;;9.12;60.83
21821;BME280;11073;48.586;12.066;2023-04-25T01:11:03;95783.03;;;9.06;60.58
21821;BME280;11073;48.586;12.066;2023-04-25T01:13:33;95785.16;;;9.04;60.70
21821;BME280;11073;48.586;12.066;2023-04-25T01:16:04;95789.72;;;9.03;60.73
21821;BME280;11073;48.586;12.066;2023-04-25T01:18:33;95796.53;;;9.06;60.84
21821;BME280;11073;48.586;12.066;2023-04-25T01:21:07;95795.94;;;9.04;60.77
21821;BME280;11073;48.586;12.066;2023-04-25T01:23:37;95796.69;;;8.99;61.08
21821;BME280;11073;48.586;12.066;2023-04-25T01:26:08;95782.59;;;8.97;60.98
21821;BME280;11073;48.586;12.066;2023-04-25T01:28:38;95781.31;;;9.00;61.27
21821;BME280;11073;48.586;12.066;2023-04-25T01:31:09;95782.44;;;9.04;61.22
21821;BME280;11073;48.586;12.066;2023-04-25T01:33:39;95786.88;;;9.10;60.82
21821;BME280;11073;48.586;12.066;2023-04-25T01:36:08;95789.91;;;9.14;60.88
21821;BME280;11073;48.586;12.066;2023-04-25T01:38:37;95791.03;;;9.18;60.66
21821;BME280;11073;48.586;12.066;2023-04-25T01:41:07;95793.19;;;9.16;60.67
21821;BME280;11073;48.586;12.066;2023-04-25T01:43:36;95786.88;;;9.10;60.60
21821;BME280;11073;48.586;12.066;2023-04-25T01:46:06;95778.53;;;9.11;60.69
21821;BME280;11073;48.586;12.066;2023-04-25T01:48:35;95785.91;;;9.16;60.68
21821;BME280;11073;48.586;12.066;2023-04-25T01:51:06;95783.03;;;9.23;60.42
21821;BME280;11073;48.586;12.066;2023-04-25T01:53:36;95790.88;;;9.24;60.23
21821;BME280;11073;48.586;12.066;2023-04-25T01:56:07;95782.22;;;9.22;60.40
21821;BME280;11073;48.586;12.066;2023-04-25T01:58:35;95787.63;;;9.22;60.49
21821;BME280;11073;48.586;12.066;2023-04-25T02:01:20;95778.63;;;9.17;60.08
21821;BME280;11073;48.586;12.066;2023-04-25T02:04:06;95767.66;;;9.06;60.61
21821;BME280;11073;48.586;12.066;2023-04-25T02:06:38;95750.22;;;8.97;60.40
21821;BME280;11073;48.586;12.066;2023-04-25T02:09:08;95760.38;;;9.07;60.54
21821;BME280;11073;48.586;12.066;2023-04-25T02:11:42;95767.06;;;9.04;60.60
21821;BME280;11073;48.586;12.066;2023-04-25T02:14:29;95766.84;;;9.06;60.68
21821;BME280;11073;48.586;12.066;2023-04-25T02:17:18;95762.31;;;8.95;60.57
21821;BME280;11073;48.586;12.066;2023-04-25T02:19:48;95742.91;;;8.81;60.78
21821;BME280;11073;48.586;12.066;2023-04-25T02:22:17;95760.94;;;8.92;60.85
21821;BME280;11073;48.586;12.066;2023-04-25T02:24:47;95762.47;;;8.88;60.89
21821;BME280;11073;48.586;12.066;2023-04-25T02:27:16;95763.38;;;8.77;60.96
21821;BME280;11073;48.586;12.066;2023-04-25T02:29:44;95748.72;;;8.73;61.22
21821;BME280;11073;48.586;12.066;2023-04-25T02:32:12;95757.06;;;8.71;61.36
21821;BME280;11073;48.586;12.066;2023-04-25T02:34:41;95757.31;;;8.70;61.53
21821;BME280;11073;48.586;12.066;2023-04-25T02:37:10;95761.16;;;8.74;61.50
21821;BME280;11073;48.586;12.066;2023-04-25T02:39:38;95756.50;;;8.69;61.55
21821;BME280;11073;48.586;12.066;2023-04-25T02:42:08;95762.72;;;8.70;61.48
21821;BME280;11073;48.586;12.066;2023-04-25T02:44:37;95759.41;;;8.68;61.87
21821;BME280;11073;48.586;12.066;2023-04-25T02:47:06;95755.09;;;8.67;61.86
21821;BME280;11073;48.586;12.066;2023-04-25T02:49:35;95756.97;;;8.66;62.07
21821;BME280;11073;48.586;12.066;2023-04-25T02:52:04;95746.06;;;8.61;62.00
21821;BME280;11073;48.586;12.066;2023-04-25T02:54:33;95756.56;;;8.57;62.01
21821;BME280;11073;48.586;12.066;2023-04-25T02:57:02;95742.66;;;8.49;62.22
21821;BME280;11073;48.586;12.066;2023-04-25T02:59:37;95749.91;;;8.48;62.41
21821;BME280;11073;48.586;12.066;2023-04-25T03:02:06;95742.66;;;8.49;62.37
21821;BME280;11073;48.586;12.066;2023-04-25T03:04:35;95743.72;;;8.48;62.46
21821;BME280;11073;48.586;12.066;2023-04-25T03:07:04;95740.41;;;8.46;62.70
21821;BME280;11073;48.586;12.066;2023-04-25T03:09:33;95740.34;;;8.41;62.73
21821;BME280;11073;48.586;12.066;2023-04-25T03:12:03;95738.69;;;8.40;62.85
21821;BME280;11073;48.586;12.066;2023-04-25T03:14:33;95736.56;;;8.42;62.84
21821;BME280;11073;48.586;12.066;2023-04-25T03:17:03;95733.13;;;8.46;62.83
21821;BME280;11073;48.586;12.066;2023-04-25T03:19:34;95735.38;;;8.49;63.01
21821;BME280;11073;48.586;12.066;2023-04-25T03:22:04;95737.31;;;8.54;63.27
21821;BME280;11073;48.586;12.066;2023-04-25T03:24:33;95701.88;;;8.34;63.23
21821;BME280;11073;48.586;12.066;2023-04-25T03:27:02;95730.72;;;8.62;63.37
21821;BME280;11073;48.586;12.066;2023-04-25T03:29:31;95732.13;;;8.64;63.14
21821;BME280;11073;48.586;12.066;2023-04-25T03:32:05;95736.94;;;8.62;63.49
21821;BME280;11073;48.586;12.066;2023-04-25T03:34:34;95737.66;;;8.57;63.25
21821;BME280;11073;48.586;12.066;2023-04-25T03:37:02;95731.75;;;8.44;63.25
21821;BME280;11073;48.586;12.066;2023-04-25T03:39:36;95741.97;;;8.42;63.41
21821;BME280;11073;48.586;12.066;2023-04-25T03:42:06;95733.06;;;8.29;63.48
21821;BME280;11073;48.586;12.066;2023-04-25T03:44:35;95740.00;;;8.25;63.62
21821;BME280;11073;48.586;12.066;2023-04-25T03:47:06;95718.91;;;8.22;63.74
21821;BME280;11073;48.586;12.066;2023-04-25T03:49:34;95716.03;;;8.12;63.85
21821;BME280;11073;48.586;12.066;2023-04-25T03:52:05;95725.38;;;8.21;63.92
21821;BME280;11073;48.586;12.066;2023-04-25T03:54:38;95714.34;;;8.23;63.99
21821;BME280;11073;48.586;12.066;2023-04-25T03:57:11;95721.22;;;8.30;64.01
21821;BME280;11073;48.586;12.066;2023-04-25T03:59:40;95723.34;;;8.28;64.07
21821;BME280;11073;48.586;12.066;2023-04-25T04:02:12;95731.44;;;8.28;64.13
21821;BME280;11073;48.586;12.066;2023-04-25T04:04:42;95729.22;;;8.25;64.22
21821;BME280;11073;48.586;12.066;2023-04-25T04:07:12;95728.50;;;8.30;64.21
21821;BME280;11073;48.586;12.066;2023-04-25T04:09:44;95725.22;;;8.28;64.32
21821;BME280;11073;48.586;12.066;2023-04-25T04:12:19;95713.94;;;8.31;64.30
21821;BME280;11073;48.586;12.066;2023-04-25T04:14:48;95712.78;;;8.39;64.44
21821;BME280;11073;48.586;12.066;2023-04-25T04:17:18;95714.50;;;8.45;64.42
21821;BME280;11073;48.586;12.066;2023-04-25T04:19:47;95717.75;;;8.47;64.30
21821;BME280;11073;48.586;12.066;2023-04-25T04:22:20;95722.94;;;8.48;64.16
21821;BME280;11073;48.586;12.066;2023-04-25T04:24:51;95723.25;;;8.52;64.20
21821;BME280;11073;48.586;12.066;2023-04-25T04:27:28;95734.41;;;8.55;64.30
21821;BME280;11073;48.586;12.066;2023-04-25T04:30:14;95737.97;;;8.61;64.30
21821;BME280;11073;48.586;12.066;2023-04-25T04:32:56;95732.75;;;8.54;64.33
21821;BME280;11073;48.586;12.066;2023-04-25T04:35:26;95737.41;;;8.59;64.56
21821;BME280;11073;48.586;12.066;2023-04-25T04:37:55;95750.91;;;8.59;64.41
21821;BME280;11073;48.586;12.066;2023-04-25T04:40:26;95747.66;;;8.57;64.80
21821;BME280;11073;48.586;12.066;2023-04-25T04:43:05;95745.34;;;8.66;64.95
21821;BME280;11073;48.586;12.066;2023-04-25T04:45:51;95755.44;;;8.70;65.01
21821;BME280;11073;48.586;12.066;2023-04-25T04:48:36;95749.94;;;8.65;64.83
21821;BME280;11073;48.586;12.066;2023-04-25T04:51:36;95747.09;;;8.72;64.96
21821;BME280;11073;48.586;12.066;2023-04-25T04:54:31;95738.59;;;8.80;65.12
21821;BME280;11073;48.586;12.066;2023-04-25T04:57:27;95749.22;;;8.87;64.87
21821;BME280;11073;48.586;12.066;2023-04-25T05:00:03;95740.41;;;8.91;64.84
21821;BME280;11073;48.586;12.066;2023-04-25T05:03:10;95740.47;;;8.96;64.80
21821;BME280;11073;48.586;12.066;2023-04-25T05:06:02;95744.59;;;8.99;64.94
21821;BME280;11073;48.586;12.066;2023-04-25T05:08:49;95742.44;;;9.01;64.77
21821;BME280;11073;48.586;12.066;2023-04-25T05:11:21;95735.25;;;9.06;64.95
21821;BME280;11073;48.586;12.066;2023-04-25T05:13:56;95739.09;;;9.10;65.03
21821;BME280;11073;48.586;12.066;2023-04-25T05:17:00;95732.97;;;9.15;64.75
21821;BME280;11073;48.586;12.066;2023-04-25T05:19:41;95737.78;;;9.13;65.04
21821;BME280;11073;48.586;12.066;2023-04-25T05:22:26;95740.81;;;9.17;64.92
21821;BME280;11073;48.586;12.066;2023-04-25T05:25:07;95736.56;;;9.21;65.01
21821;BME280;11073;48.586;12.066;2023-04-25T05:27:57;95739.81;;;9.23;64.92
21821;BME280;11073;48.586;12.066;2023-04-25T05:30:39;95726.22;;;9.18;64.91
21821;BME280;11073;48.586;12.066;2023-04-25T05:33:16;95736.88;;;9.24;65.20
21821;BME280;11073;48.586;12.066;2023-04-25T05:35:46;95737.84;;;9.18;65.14
21821;BME280;11073;48.586;12.066;2023-04-25T05:38:16;95736.97;;;9.13;65.08
21821;BME280;11073;48.586;12.066;2023-04-25T05:41:05;95729.19;;;9.16;65.32
21821;BME280;11073;48.586;12.066;2023-04-25T05:43:48;95723.06;;;9.21;65.29
21821;BME280;11073;48.586;12.066;2023-04-25T05:46:46;95712.31;;;9.26;65.17
21821;BME280;11073;48.586;12.066;2023-04-25T05:49:30;95721.22;;;9.26;65.23
21821;BME280;11073;48.586;12.066;2023-04-25T05:52:19;95724.28;;;9.30;65.30
21821;BME280;11073;48.586;12.066;2023-04-25T05:54:59;95721.16;;;9.38;65.26
21821;BME280;11073;48.586;12.066;2023-04-25T05:57:29;95723.59;;;9.39;65.04
21821;BME280;11073;48.586;12.066;2023-04-25T05:59:59;95728.00;;;9.46;65.26
21821;BME280;11073;48.586;12.066;2023-04-25T06:02:40;95728.25;;;9.44;64.79
21821;BME280;11073;48.586;12.066;2023-04-25T06:05:11;95731.84;;;9.50;64.88
21821;BME280;11073;48.586;12.066;2023-04-25T06:07:40;95726.75;;;9.53;64.56
21821;BME280;11073;48.586;12.066;2023-04-25T06:10:10;95718.22;;;9.61;64.67
21821;BME280;11073;48.586;12.066;2023-04-25T06:12:39;95719.84;;;9.62;64.48
21821;BME280;11073;48.586;12.066;2023-04-25T06:15:08;95729.38;;;9.65;64.55
21821;BME280;11073;48.586;12.066;2023-04-25T06:17:53;95718.94;;;9.74;64.45
21821;BME280;11073;48.586;12.066;2023-04-25T06:20:23;95726.09;;;9.85;64.47
21821;BME280;11073;48.586;12.066;2023-04-25T06:22:54;95717.13;;;9.79;64.19
21821;BME280;11073;48.586;12.066;2023-04-25T06:25:36;95725.41;;;9.94;64.01
21821;BME280;11073;48.586;12.066;2023-04-25T06:28:05;95734.09;;;9.97;63.54
21821;BME280;11073;48.586;12.066;2023-04-25T06:30:34;95731.47;;;10.02;63.79
21821;BME280;11073;48.586;12.066;2023-04-25T06:33:07;95730.06;;;9.99;63.62
21821;BME280;11073;48.586;12.066;2023-04-25T06:35:39;95735.53;;;10.04;63.09
21821;BME280;11073;48.586;12.066;2023-04-25T06:38:10;95733.34;;;10.01;63.27
21821;BME280;11073;48.586;12.066;2023-04-25T06:40:45;95713.00;;;9.99;62.93
21821;BME280;11073;48.586;12.066;2023-04-25T06:43:13;95744.00;;;10.13;63.08
21821;BME280;11073;48.586;12.066;2023-04-25T06:45:45;95728.41;;;10.20;62.98
21821;BME280;11073;48.586;12.066;2023-04-25T06:48:15;95727.03;;;10.17;62.64
21821;BME280;11073;48.586;12.066;2023-04-25T06:50:44;95727.13;;;10.23;62.86
21821;BME280;11073;48.586;12.066;2023-04-25T06:53:13;95734.91;;;10.19;62.45
21821;BME280;11073;48.586;12.066;2023-04-25T06:55:46;95734.16;;;10.02;62.32
21821;BME280;11073;48.586;12.066;2023-04-25T06:58:18;95740.38;;;10.02;62.61
21821;BME280;11073;48.586;12.066;2023-04-25T07:00:59;95722.16;;;9.92;62.92
21821;BME280;11073;48.586;12.066;2023-04-25T07:03:28;95736.78;;;9.97;63.08
21821;BME280;11073;48.586;12.066;2023-04-25T07:06:03;95724.34;;;9.95;63.53
21821;BME280;11073;48.586;12.066;2023-04-25T07:08:32;95720.56;;;9.97;63.47
21821;BME280;11073;48.586;12.066;2023-04-25T07:11:03;95724.47;;;10.06;63.38
21821;BME280;11073;48.586;12.066;2023-04-25T07:13:32;95719.38;;;10.09;63.85
21821;BME280;11073;48.586;12.066;2023-04-25T07:16:01;95715.69;;;10.20;63.45
21821;BME280;11073;48.586;12.066;2023-04-25T07:18:31;95725.47;;;10.21;63.41
21821;BME280;11073;48.586;12.066;2023-04-25T07:21:00;95714.06;;;10.19;63.40
21821;BME280;11073;48.586;12.066;2023-04-25T07:23:31;95727.50;;;10.31;63.39
21821;BME280;11073;48.586;12.066;2023-04-25T07:26:06;95729.28;;;10.47;63.22
21821;BME280;11073;48.586;12.066;2023-04-25T07:28:37;95733.28;;;10.67;62.84
21821;BME280;11073;48.586;12.066;2023-04-25T07:31:07;95729.09;;;10.81;62.94
21821;BME280;11073;48.586;12.066;2023-04-25T07:33:36;95729.97;;;10.92;62.71
21821;BME280;11073;48.586;12.066;2023-04-25T07:36:06;95730.84;;;10.97;62.04
21821;BME280;11073;48.586;12.066;2023-04-25T07:38:35;95726.38;;;10.81;61.91
21821;BME280;11073;48.586;12.066;2023-04-25T07:41:05;95730.44;;;10.84;61.73
21821;BME280;11073;48.586;12.066;2023-04-25T07:43:38;95731.25;;;10.84;61.67
21821;BME280;11073;48.586;12.066;2023-04-25T07:46:06;95724.97;;;10.78;60.96
21821;BME280;11073;48.586;12.066;2023-04-25T07:48:36;95723.94;;;10.80;61.19
21821;BME280;11073;48.586;12.066;2023-04-25T07:51:05;95725.31;;;10.82;61.23
21821;BME280;11073;48.586;12.066;2023-04-25T07:53:36;95726.25;;;10.71;61.17
21821;BME280;11073;48.586;12.066;2023-04-25T07:56:12;95741.13;;;10.68;60.87
21821;BME280;11073;48.586;12.066;2023-04-25T07:58:44;95735.38;;;10.60;61.16
21821;BME280;11073;48.586;12.066;2023-04-25T08:01:15;95730.09;;;10.48;61.17
21821;BME280;11073;48.586;12.066;2023-04-25T08:03:52;95730.09;;;10.48;61.20
21821;BME280;11073;48.586;12.066;2023-04-25T08:06:33;95726.88;;;10.24;61.36
21821;BME280;11073;48.586;12.066;2023-04-25T08:09:12;95730.75;;;10.33;61.25
21821;BME280;11073;48.586;12.066;2023-04-25T08:11:44;95725.22;;;10.45;61.40
21821;BME280;11073;48.586;12.066;2023-04-25T08:14:16;95730.38;;;10.46;61.24
21821;BME280;11073;48.586;12.066;2023-04-25T08:16:45;95726.97;;;10.34;61.04
21821;BME280;11073;48.586;12.066;2023-04-25T08:19:15;95724.91;;;10.41;61.51
21821;BME280;11073;48.586;12.066;2023-04-25T08:21:47;95720.81;;;10.39;61.33
21821;BME280;11073;48.586;12.066;2023-04-25T08:24:24;95726.19;;;10.61;61.04
21821;BME280;11073;48.586;12.066;2023-04-25T08:26:54;95730.72;;;10.82;61.06
21821;BME280;11073;48.586;12.066;2023-04-25T08:29:27;95731.75;;;11.08;61.07
21821;BME280;11073;48.586;12.066;2023-04-25T08:31:56;95733.28;;;11.31;60.46
21821;BME280;11073;48.586;12.066;2023-04-25T08:34:24;95726.94;;;11.57;60.33
21821;BME280;11073;48.586;12.066;2023-04-25T08:36:57;95718.91;;;11.73;59.98
21821;BME280;11073;48.586;12.066;2023-04-25T08:39:39;95732.94;;;11.65;59.83
21821;BME280;11073;48.586;12.066;2023-04-25T08:42:31;95732.81;;;11.44;59.17
21821;BME280;11073;48.586;12.066;2023-04-25T08:45:03;95724.69;;;11.44;59.25
21821;BME280;11073;48.586;12.066;2023-04-25T08:47:38;95732.22;;;11.74;59.27
21821;BME280;11073;48.586;12.066;2023-04-25T08:50:09;95733.69;;;11.92;59.28
21821;BME280;11073;48.586;12.066;2023-04-25T08:52:43;95729.38;;;11.96;58.65
21821;BME280;11073;48.586;12.066;2023-04-25T08:55:14;95726.72;;;12.11;57.93
21821;BME280;11073;48.586;12.066;2023-04-25T08:57:46;95722.75;;;12.39;57.94
21821;BME280;11073;48.586;12.066;2023-04-25T09:00:16;95727.72;;;12.68;56.92
21821;BME280;11073;48.586;12.066;2023-04-25T09:02:47;95728.72;;;12.41;56.21
21821;BME280;11073;48.586;12.066;2023-04-25T09:05:18;95726.16;;;12.09;55.93
21821;BME280;11073;48.586;12.066;2023-04-25T09:07:51;95738.94;;;12.14;55.74
21821;BME280;11073;48.586;12.066;2023-04-25T09:10:20;95725.59;;;12.02;55.69
21821;BME280;11073;48.586;12.066;2023-04-25T09:13:03;95729.38;;;12.01;55.20
21821;BME280;11073;48.586;12.066;2023-04-25T09:15:49;95735.75;;;12.32;55.86
21821;BME280;11073;48.586;12.066;2023-04-25T09:18:43;95739.59;;;12.52;55.37
21821;BME280;11073;48.586;12.066;2023-04-25T09:21:16;95721.13;;;12.49;55.21
21821;BME280;11073;48.586;12.066;2023-04-25T09:23:48;95751.06;;;11.96;54.81
21821;BME280;11073;48.586;12.066;2023-04-25T09:26:22;95745.78;;;11.74;55.09
21821;BME280;11073;48.586;12.066;2023-04-25T09:29:05;95758.47;;;11.69;55.38
21821;BME280;11073;48.586;12.066;2023-04-25T09:31:37;95761.09;;;11.58;55.18
21821;BME280;11073;48.586;12.066;2023-04-25T09:34:09;95764.06;;;11.57;55.16
21821;BME280;11073;48.586;12.066;2023-04-25T09:36:49;95757.84;;;11.56;55.24
21821;BME280;11073;48.586;12.066;2023-04-25T09:39:37;95764.06;;;11.89;55.76
21821;BME280;11073;48.586;12.066;2023-04-25T09:42:14;95766.16;;;12.34;55.77
21821;BME280;11073;48.586;12.066;2023-04-25T09:44:45;95764.06;;;12.62;55.23
21821;BME280;11073;48.586;12.066;2023-04-25T09:47:15;95769.28;;;12.84;55.30
21821;BME280;11073;48.586;12.066;2023-04-25T09:49:45;95747.63;;;13.35;54.81
21821;BME280;11073;48.586;12.066;2023-04-25T09:52:15;95760.91;;;13.51;54.34
21821;BME280;11073;48.586;12.066;2023-04-25T09:55:08;95757.38;;;13.31;53.96
21821;BME280;11073;48.586;12.066;2023-04-25T09:57:37;95757.91;;;13.07;53.89
21821;BME280;11073;48.586;12.066;2023-04-25T10:00:10;95763.31;;;13.02;53.99
21821;BME280;11073;48.586;12.066;2023-04-25T10:02:46;95764.38;;;12.86;53.66
21821;BME280;11073;48.586;12.066;2023-04-25T10:05:35;95753.50;;;12.60;54.23
21821;BME280;11073;48.586;12.066;2023-04-25T10:08:06;95765.69;;;12.63;54.07
21821;BME280;11073;48.586;12.066;2023-04-25T10:10:36;95755.91;;;12.67;54.42
21821;BME280;11073;48.586;12.066;2023-04-25T10:13:06;95754.66;;;13.46;54.78
21821;BME280;11073;48.586;12.066;2023-04-25T10:15:36;95754.81;;;14.16;54.28
21821;BME280;11073;48.586;12.066;2023-04-25T10:18:07;95761.97;;;13.91;53.34
21821;BME280;11073;48.586;12.066;2023-04-25T10:20:37;95757.09;;;13.68;53.04
21821;BME280;11073;48.586;12.066;2023-04-25T10:23:10;95768.81;;;13.63;52.54
21821;BME280;11073;48.586;12.066;2023-04-25T10:25:41;95759.53;;;13.59;52.97
21821;BME280;11073;48.586;12.066;2023-04-25T10:28:10;95761.16;;;13.86;53.15
21821;BME280;11073;48.586;12.066;2023-04-25T10:30:56;95753.22;;;14.69;52.37
21821;BME280;11073;48.586;12.066;2023-04-25T10:33:30;95751.38;;;15.04;51.84
21821;BME280;11073;48.586;12.066;2023-04-25T10:36:09;95747.13;;;15.27;50.29
21821;BME280;11073;48.586;12.066;2023-04-25T10:38:38;95749.53;;;15.33;49.76
21821;BME280;11073;48.586;12.066;2023-04-25T10:41:08;95742.38;;;15.71;49.54
21821;BME280;11073;48.586;12.066;2023-04-25T10:43:39;95757.81;;;15.86;48.16
21821;BME280;11073;48.586;12.066;2023-04-25T10:46:21;95759.41;;;15.58;48.22
21821;BME280;11073;48.586;12.066;2023-04-25T10:48:52;95762.84;;;15.01;48.25
21821;BME280;11073;48.586;12.066;2023-04-25T10:51:24;95776.19;;;14.53;48.52
21821;BME280;11073;48.586;12.066;2023-04-25T10:54:00;95771.91;;;14.26;49.35
21821;BME280;11073;48.586;12.066;2023-04-25T10:56:30;95780.69;;;14.08;49.71
21821;BME280;11073;48.586;12.066;2023-04-25T10:59:09;95765.69;;;14.16;50.26
21821;BME280;11073;48.586;12.066;2023-04-25T11:01:41;95779.44;;;14.55;50.30
21821;BME280;11073;48.586;12.066;2023-04-25T11:04:21;95781.09;;;14.56;49.96
21821;BME280;11073;48.586;12.066;2023-04-25T11:07:09;95775.00;;;14.69;49.59
21821;BME280;11073;48.586;12.066;2023-04-25T11:09:39;95776.28;;;14.92;49.16
21821;BME280;11073;48.586;12.066;2023-04-25T11:12:09;95775.66;;;15.00;48.96
21821;BME280;11073;48.586;12.066;2023-04-25T11:14:39;95781.84;;;15.11;48.72
21821;BME280;11073;48.586;12.066;2023-04-25T11:17:09;95780.53;;;15.08;48.70
21821;BME280;11073;48.586;12.066;2023-04-25T11:19:39;95799.66;;;14.98;48.46
21821;BME280;11073;48.586;12.066;2023-04-25T11:22:09;95773.69;;;14.61;48.35
21821;BME280;11073;48.586;12.066;2023-04-25T11:24:38;95778.22;;;14.86;48.55
21821;BME280;11073;48.586;12.066;2023-04-25T11:27:07;95788.19;;;15.01;48.46
21821;BME280;11073;48.586;12.066;2023-04-25T11:29:36;95787.16;;;15.36;48.41
21821;BME280;11073;48.586;12.066;2023-04-25T11:32:04;95791.00;;;15.30;48.22
21821;BME280;11073;48.586;12.066;2023-04-25T11:34:35;95787.03;;;15.12;48.22
21821;BME280;11073;48.586;12.066;2023-04-25T11:37:04;95789.31;;;14.95;48.40
21821;BME280;11073;48.586;12.066;2023-04-25T11:39:34;95780.88;;;14.92;48.56
21821;BME280;11073;48.586;12.066;2023-04-25T11:42:04;95777.19;;;14.72;48.82
21821;BME280;11073;48.586;12.066;2023-04-25T11:44:40;95784.06;;;15.09;49.05
21821;BME280;11073;48.586;12.066;2023-04-25T11:47:09;95790.09;;;15.40;48.95
21821;BME280;11073;48.586;12.066;2023-04-25T11:49:40;95800.59;;;15.62;48.65
21821;BME280;11073;48.586;12.066;2023-04-25T11:52:09;95801.47;;;15.86;48.43
21821;BME280;11073;48.586;12.066;2023-04-25T11:54:38;95809.66;;;16.15;48.49
21821;BME280;11073;48.586;12.066;2023-04-25T11:57:07;95809.56;;;15.96;48.01
21821;BME280;11073;48.586;12.066;2023-04-25T11:59:36;95813.00;;;15.78;47.72
21821;BME280;11073;48.586;12.066;2023-04-25T12:02:05;95811.75;;;15.60;47.59
21821;BME280;11073;48.586;12.066;2023-04-25T12:04:34;95811.38;;;15.43;47.55
21821;BME280;11073;48.586;12.066;2023-04-25T12:07:09;95811.09;;;15.39;47.50
21821;BME280;11073;48.586;12.066;2023-04-25T12:09:38;95806.88;;;15.23;47.48
21821;BME280;11073;48.586;12.066;2023-04-25T12:12:09;95791.75;;;15.02;47.48
21821;BME280;11073;48.586;12.066;2023-04-25T12:14:38;95802.72;;;14.86;47.68
21821;BME280;11073;48.586;12.066;2023-04-25T12:17:07;95817.19;;;14.77;48.05
21821;BME280;11073;48.586;12.066;2023-04-25T12:19:38;95819.75;;;14.53;48.01
21821;BME280;11073;48.586;12.066;2023-04-25T12:22:20;95815.41;;;14.52;47.95
21821;BME280;11073;48.586;12.066;2023-04-25T12:24:50;95819.53;;;14.49;47.75
21821;BME280;11073;48.586;12.066;2023-04-25T12:27:20;95828.44;;;14.65;47.82
21821;BME280;11073;48.586;12.066;2023-04-25T12:29:51;95818.22;;;14.91;47.63
21821;BME280;11073;48.586;12.066;2023-04-25T12:32:20;95831.19;;;15.14;47.16
21821;BME280;11073;48.586;12.066;2023-04-25T12:34:49;95831.75;;;15.06;46.62
21821;BME280;11073;48.586;12.066;2023-04-25T12:37:17;95824.97;;;15.04;46.38
21821;BME280;11073;48.586;12.066;2023-04-25T12:39:47;95837.50;;;15.05;46.44
21821;BME280;11073;48.586;12.066;2023-04-25T12:42:16;95846.03;;;14.93;45.92
21821;BME280;11073;48.586;12.066;2023-04-25T12:44:44;95837.06;;;14.87;45.83
21821;BME280;11073;48.586;12.066;2023-04-25T12:47:13;95839.25;;;14.85;45.80
21821;BME280;11073;48.586;12.066;2023-04-25T12:49:43;95843.88;;;14.85;45.70
21821;BME280;11073;48.586;12.066;2023-04-25T12:52:13;95844.72;;;14.80;45.70
21821;BME280;11073;48.586;12.066;2023-04-25T12:54:41;95831.38;;;14.79;45.49
21821;BME280;11073;48.586;12.066;2023-04-25T12:57:12;95836.00;;;14.78;45.25
21821;BME280;11073;48.586;12.066;2023-04-25T12:59:41;95844.19;;;14.78;45.34
21821;BME280;11073;48.586;12.066;2023-04-25T13:02:10;95838.25;;;14.66;44.88
21821;BME280;11073;48.586;12.066;2023-04-25T13:04:40;95838.03;;;14.42;45.11
21821;BME280;11073;48.586;12.066;2023-04-25T13:07:09;95850.84;;;14.37;45.00
21821;BME280;11073;48.586;12.066;2023-04-25T13:09:37;95840.81;;;14.22;45.01
21821;BME280;11073;48.586;12.066;2023-04-25T13:12:06;95847.63;;;14.09;44.88
21821;BME280;11073;48.586;12.066;2023-04-25T13:14:37;95847.91;;;13.97;45.18
21821;BME280;11073;48.586;12.066;2023-04-25T13:17:05;95846.56;;;13.90;45.76
21821;BME280;11073;48.586;12.066;2023-04-25T13:19:35;95854.75;;;13.85;46.12
21821;BME280;11073;48.586;12.066;2023-04-25T13:22:04;95847.38;;;13.60;46.20
21821;BME280;11073;48.586;12.066;2023-04-25T13:24:33;95857.44;;;13.59;46.50